sensor_id;sensor_type;location;lat;lon;timestamp;temperature;humidity
19898;DHT22;10111;50.814;4.572;2023-04-25T00:01:48;9.80;99.90
19898;DHT22;10111;50.814;4.572;2023-04-25T00:04:13;9.70;99.90
19898;DHT22;10111;50.814;4.572;2023-04-25T00:06:39;9.90;99.90
19898;DHT22;10111;50.814;4.572;2023-04-25T00:09:06;9.70;99.90
19898;DHT22;10111;50.814;4.572;2023-04-25T00:11:36;9.70;99.90
19898;DHT22;10111;50.814;4.572;2023-04-25T00:14:03;9.70;99.90
19898;DHT22;10111;50.814;4.572;2023-04-25T00:16:30;9.70;99.90
19898;DHT22;10111;50.814;4.572;2023-04-25T00:18:58;9.70;99.90
19898;DHT22;10111;50.814;4.572;2023-04-25T00:21:24;9.80;99.90
19898;DHT22;10111;50.814;4.572;2023-04-25T00:23:52;9.80;99.90
19898;DHT22;10111;50.814;4.572;2023-04-25T00:26:18;9.80;99.90
19898;DHT22;10111;50.814;4.572;2023-04-25T00:28:44;9.80;99.90
19898;DHT22;10111;50.814;4.572;2023-04-25T00:31:09;9.80;99.90
19898;DHT22;10111;50.814;4.572;2023-04-25T00:33:35;9.80;99.90
19898;DHT22;10111;50.814;4.572;2023-04-25T00:36:01;9.80;99.90
19898;DHT22;10111;50.814;4.572;2023-04-25T00:38:27;9.70;99.90
19898;DHT22;10111;50.814;4.572;2023-04-25T00:40:52;9.70;99.90
19898;DHT22;10111;50.814;4.572;2023-04-25T00:43:18;9.70;99.90
19898;DHT22;10111;50.814;4.572;2023-04-25T00:45:47;9.70;99.90
19898;DHT22;10111;50.814;4.572;2023-04-25T00:48:17;9.80;99.90
19898;DHT22;10111;50.814;4.572;2023-04-25T00:50:52;9.80;99.90
19898;DHT22;10111;50.814;4.572;2023-04-25T00:53:19;9.80;99.90
19898;DHT22;10111;50.814;4.572;2023-04-25T00:55:45;9.80;99.90
19898;DHT22;10111;50.814;4.572;2023-04-25T00:58:11;9.90;99.90
19898;DHT22;10111;50.814;4.572;2023-04-25T01:00:36;9.80;99.90
19898;DHT22;10111;50.814;4.572;2023-04-25T01:03:03;9.90;99.90
19898;DHT22;10111;50.814;4.572;2023-04-25T01:05:29;9.80;99.90
19898;DHT22;10111;50.814;4.572;2023-04-25T01:07:55;9.90;99.90
19898;DHT22;10111;50.814;4.572;2023-04-25T01:10:21;9.80;99.90
19898;DHT22;10111;50.814;4.572;2023-04-25T01:12:47;9.80;99.90
19898;DHT22;10111;50.814;4.572;2023-04-25T01:15:12;9.70;99.90
19898;DHT22;10111;50.814;4.572;2023-04-25T01:17:38;9.70;99.90
19898;DHT22;10111;50.814;4.572;2023-04-25T01:20:07;9.60;99.90
19898;DHT22;10111;50.814;4.572;2023-04-25T01:22:35;9.60;99.90
19898;DHT22;10111;50.814;4.572;2023-04-25T01:25:00;9.60;99.90
19898;DHT22;10111;50.814;4.572;2023-04-25T01:27:27;9.60;99.90
19898;DHT22;10111;50.814;4.572;2023-04-25T01:29:54;9.50;99.90
19898;DHT22;10111;50.814;4.572;2023-04-25T01:32:22;9.60;99.90
19898;DHT22;10111;50.814;4.572;2023-04-25T01:34:49;9.60;99.90
19898;DHT22;10111;50.814;4.572;2023-04-25T01:37:15;9.60;99.90
19898;DHT22;10111;50.814;4.572;2023-04-25T01:39:41;9.60;99.90
19898;DHT22;10111;50.814;4.572;2023-04-25T01:42:07;9.60;99.90
19898;DHT22;10111;50.814;4.572;2023-04-25T01:44:33;9.60;99.90
19898;DHT22;10111;50.814;4.572;2023-04-25T01:46:59;9.50;99.90
19898;DHT22;10111;50.814;4.572;2023-04-25T01:49:24;9.50;99.90
19898;DHT22;10111;50.814;4.572;2023-04-25T01:51:50;9.60;99.90
19898;DHT22;10111;50.814;4.572;2023-04-25T01:54:17;9.50;99.90
19898;DHT22;10111;50.814;4.572;2023-04-25T01:56:43;9.50;99.90
19898;DHT22;10111;50.814;4.572;2023-04-25T01:59:15;9.50;99.90
19898;DHT22;10111;50.814;4.572;2023-04-25T02:01:40;9.60;99.90
19898;DHT22;10111;50.814;4.572;2023-04-25T02:04:06;9.70;99.90
19898;DHT22;10111;50.814;4.572;2023-04-25T02:06:31;9.60;99.90
19898;DHT22;10111;50.814;4.572;2023-04-25T02:08:57;9.60;99.90
19898;DHT22;10111;50.814;4.572;2023-04-25T02:11:23;9.60;99.90
19898;DHT22;10111;50.814;4.572;2023-04-25T02:13:49;9.70;99.90
19898;DHT22;10111;50.814;4.572;2023-04-25T02:16:14;9.60;99.90
19898;DHT22;10111;50.814;4.572;2023-04-25T02:18:40;9.50;99.90
19898;DHT22;10111;50.814;4.572;2023-04-25T02:21:06;9.40;99.90
19898;DHT22;10111;50.814;4.572;2023-04-25T02:23:31;9.40;99.90
19898;DHT22;10111;50.814;4.572;2023-04-25T02:25:57;9.50;99.90
19898;DHT22;10111;50.814;4.572;2023-04-25T02:28:24;9.50;99.90
19898;DHT22;10111;50.814;4.572;2023-04-25T02:30:50;9.50;99.90
19898;DHT22;10111;50.814;4.572;2023-04-25T02:33:16;9.40;99.90
19898;DHT22;10111;50.814;4.572;2023-04-25T02:35:42;9.40;99.90
19898;DHT22;10111;50.814;4.572;2023-04-25T02:38:07;9.60;99.90
19898;DHT22;10111;50.814;4.572;2023-04-25T02:40:33;9.50;99.90
19898;DHT22;10111;50.814;4.572;2023-04-25T02:42:59;9.40;99.90
19898;DHT22;10111;50.814;4.572;2023-04-25T02:45:24;9.30;99.90
19898;DHT22;10111;50.814;4.572;2023-04-25T02:47:50;9.40;99.90
19898;DHT22;10111;50.814;4.572;2023-04-25T02:50:16;9.20;99.90
19898;DHT22;10111;50.814;4.572;2023-04-25T02:52:41;8.90;99.90
19898;DHT22;10111;50.814;4.572;2023-04-25T02:55:07;8.70;99.90
19898;DHT22;10111;50.814;4.572;2023-04-25T02:57:33;8.70;99.90
19898;DHT22;10111;50.814;4.572;2023-04-25T02:59:59;8.70;99.90
19898;DHT22;10111;50.814;4.572;2023-04-25T03:02:24;8.70;99.90
19898;DHT22;10111;50.814;4.572;2023-04-25T03:04:50;8.70;99.90
19898;DHT22;10111;50.814;4.572;2023-04-25T03:07:15;8.80;99.90
19898;DHT22;10111;50.814;4.572;2023-04-25T03:09:41;8.80;99.90
19898;DHT22;10111;50.814;4.572;2023-04-25T03:12:07;8.70;99.90
19898;DHT22;10111;50.814;4.572;2023-04-25T03:14:33;8.80;99.90
19898;DHT22;10111;50.814;4.572;2023-04-25T03:16:58;8.80;99.90
19898;DHT22;10111;50.814;4.572;2023-04-25T03:19:24;8.80;99.90
19898;DHT22;10111;50.814;4.572;2023-04-25T03:21:49;8.70;99.90
19898;DHT22;10111;50.814;4.572;2023-04-25T03:24:15;8.70;99.90
19898;DHT22;10111;50.814;4.572;2023-04-25T03:26:41;8.80;99.90
19898;DHT22;10111;50.814;4.572;2023-04-25T03:29:06;8.80;99.90
19898;DHT22;10111;50.814;4.572;2023-04-25T03:31:32;8.80;99.90
19898;DHT22;10111;50.814;4.572;2023-04-25T03:33:58;8.90;99.90
19898;DHT22;10111;50.814;4.572;2023-04-25T03:36:23;8.80;99.90
19898;DHT22;10111;50.814;4.572;2023-04-25T03:38:49;8.80;99.90
19898;DHT22;10111;50.814;4.572;2023-04-25T03:41:15;8.90;99.90
19898;DHT22;10111;50.814;4.572;2023-04-25T03:43:41;8.90;99.90
19898;DHT22;10111;50.814;4.572;2023-04-25T03:46:06;8.80;99.90
19898;DHT22;10111;50.814;4.572;2023-04-25T03:48:32;8.90;99.90
19898;DHT22;10111;50.814;4.572;2023-04-25T03:50:57;8.90;99.90
19898;DHT22;10111;50.814;4.572;2023-04-25T03:53:24;9.00;99.90
19898;DHT22;10111;50.814;4.572;2023-04-25T03:55:50;9.10;99.90
19898;DHT22;10111;50.814;4.572;2023-04-25T03:58:17;9.40;99.90
19898;DHT22;10111;50.814;4.572;2023-04-25T04:00:42;9.30;99.90
19898;DHT22;10111;50.814;4.572;2023-04-25T04:03:08;9.30;99.90
19898;DHT22;10111;50.814;4.572;2023-04-25T04:05:34;9.10;99.90
19898;DHT22;10111;50.814;4.572;2023-04-25T04:07:59;8.90;99.90
19898;DHT22;10111;50.814;4.572;2023-04-25T04:10:25;9.00;99.90
19898;DHT22;10111;50.814;4.572;2023-04-25T04:12:51;8.80;99.90
19898;DHT22;10111;50.814;4.572;2023-04-25T04:15:17;8.50;99.90
19898;DHT22;10111;50.814;4.572;2023-04-25T04:17:42;8.60;99.90
19898;DHT22;10111;50.814;4.572;2023-04-25T04:20:08;8.50;99.90
19898;DHT22;10111;50.814;4.572;2023-04-25T04:22:34;8.50;99.90
19898;DHT22;10111;50.814;4.572;2023-04-25T04:25:00;8.30;99.90
19898;DHT22;10111;50.814;4.572;2023-04-25T04:27:26;8.30;99.90
19898;DHT22;10111;50.814;4.572;2023-04-25T04:29:53;8.40;99.90
19898;DHT22;10111;50.814;4.572;2023-04-25T04:32:19;8.30;99.90
19898;DHT22;10111;50.814;4.572;2023-04-25T04:34:44;8.10;99.90
19898;DHT22;10111;50.814;4.572;2023-04-25T04:37:10;8.20;99.90
19898;DHT22;10111;50.814;4.572;2023-04-25T04:39:38;8.20;99.90
19898;DHT22;10111;50.814;4.572;2023-04-25T04:42:04;8.20;99.90
19898;DHT22;10111;50.814;4.572;2023-04-25T04:44:31;8.20;99.90
19898;DHT22;10111;50.814;4.572;2023-04-25T04:46:58;8.20;99.90
19898;DHT22;10111;50.814;4.572;2023-04-25T04:49:24;8.30;99.90
19898;DHT22;10111;50.814;4.572;2023-04-25T04:51:50;8.30;99.90
19898;DHT22;10111;50.814;4.572;2023-04-25T04:54:16;8.40;99.90
19898;DHT22;10111;50.814;4.572;2023-04-25T04:56:41;8.40;99.90
19898;DHT22;10111;50.814;4.572;2023-04-25T04:59:07;8.30;99.90
19898;DHT22;10111;50.814;4.572;2023-04-25T05:01:33;8.30;99.90
19898;DHT22;10111;50.814;4.572;2023-04-25T05:04:01;8.30;99.90
19898;DHT22;10111;50.814;4.572;2023-04-25T05:06:28;8.30;99.90
19898;DHT22;10111;50.814;4.572;2023-04-25T05:08:57;8.30;99.90
19898;DHT22;10111;50.814;4.572;2023-04-25T05:11:24;8.40;99.90
19898;DHT22;10111;50.814;4.572;2023-04-25T05:13:52;8.40;99.90
19898;DHT22;10111;50.814;4.572;2023-04-25T05:16:18;8.50;99.90
19898;DHT22;10111;50.814;4.572;2023-04-25T05:18:43;8.50;99.90
19898;DHT22;10111;50.814;4.572;2023-04-25T05:21:09;8.50;99.90
19898;DHT22;10111;50.814;4.572;2023-04-25T05:23:35;8.50;99.90
19898;DHT22;10111;50.814;4.572;2023-04-25T05:26:00;8.60;99.90
19898;DHT22;10111;50.814;4.572;2023-04-25T05:28:26;8.60;99.90
19898;DHT22;10111;50.814;4.572;2023-04-25T05:30:52;8.50;99.90
19898;DHT22;10111;50.814;4.572;2023-04-25T05:33:17;8.70;99.90
19898;DHT22;10111;50.814;4.572;2023-04-25T05:35:43;8.80;99.90
19898;DHT22;10111;50.814;4.572;2023-04-25T05:38:09;8.80;99.90
19898;DHT22;10111;50.814;4.572;2023-04-25T05:40:35;8.70;99.90
19898;DHT22;10111;50.814;4.572;2023-04-25T05:43:01;8.70;99.90
19898;DHT22;10111;50.814;4.572;2023-04-25T05:45:26;8.60;99.90
19898;DHT22;10111;50.814;4.572;2023-04-25T05:47:52;8.70;99.90
19898;DHT22;10111;50.814;4.572;2023-04-25T05:50:18;8.60;99.90
19898;DHT22;10111;50.814;4.572;2023-04-25T05:52:43;8.60;99.90
19898;DHT22;10111;50.814;4.572;2023-04-25T05:55:09;8.50;99.90
19898;DHT22;10111;50.814;4.572;2023-04-25T05:57:35;8.50;99.90
19898;DHT22;10111;50.814;4.572;2023-04-25T06:00:01;8.50;99.90
19898;DHT22;10111;50.814;4.572;2023-04-25T06:02:27;8.50;99.90
19898;DHT22;10111;50.814;4.572;2023-04-25T06:04:53;8.60;99.90
19898;DHT22;10111;50.814;4.572;2023-04-25T06:07:19;8.60;99.90
19898;DHT22;10111;50.814;4.572;2023-04-25T06:09:45;8.60;99.90
19898;DHT22;10111;50.814;4.572;2023-04-25T06:12:11;8.60;99.90
19898;DHT22;10111;50.814;4.572;2023-04-25T06:14:37;8.80;99.90
19898;DHT22;10111;50.814;4.572;2023-04-25T06:17:03;8.90;99.90
19898;DHT22;10111;50.814;4.572;2023-04-25T06:19:33;9.10;99.90
19898;DHT22;10111;50.814;4.572;2023-04-25T06:21:59;9.00;99.90
19898;DHT22;10111;50.814;4.572;2023-04-25T06:24:25;9.00;99.90
19898;DHT22;10111;50.814;4.572;2023-04-25T06:26:51;9.00;99.90
19898;DHT22;10111;50.814;4.572;2023-04-25T06:29:17;8.90;99.90
19898;DHT22;10111;50.814;4.572;2023-04-25T06:31:42;8.90;99.90
19898;DHT22;10111;50.814;4.572;2023-04-25T06:34:08;9.00;99.90
19898;DHT22;10111;50.814;4.572;2023-04-25T06:36:33;9.00;99.90
19898;DHT22;10111;50.814;4.572;2023-04-25T06:38:59;9.20;99.90
19898;DHT22;10111;50.814;4.572;2023-04-25T06:41:25;9.20;99.90
19898;DHT22;10111;50.814;4.572;2023-04-25T06:43:50;9.40;99.90
19898;DHT22;10111;50.814;4.572;2023-04-25T06:46:16;9.30;99.90
19898;DHT22;10111;50.814;4.572;2023-04-25T06:48:41;9.40;99.90
19898;DHT22;10111;50.814;4.572;2023-04-25T06:51:07;9.50;99.90
19898;DHT22;10111;50.814;4.572;2023-04-25T06:53:33;9.70;99.90
19898;DHT22;10111;50.814;4.572;2023-04-25T06:55:58;9.90;99.90
19898;DHT22;10111;50.814;4.572;2023-04-25T06:58:24;10.00;99.90
19898;DHT22;10111;50.814;4.572;2023-04-25T07:00:51;10.00;99.90
19898;DHT22;10111;50.814;4.572;2023-04-25T07:03:17;10.00;99.90
19898;DHT22;10111;50.814;4.572;2023-04-25T07:05:43;10.10;99.90
19898;DHT22;10111;50.814;4.572;2023-04-25T07:08:08;10.10;99.90
19898;DHT22;10111;50.814;4.572;2023-04-25T07:10:34;10.10;99.90
19898;DHT22;10111;50.814;4.572;2023-04-25T07:13:00;10.20;99.90
19898;DHT22;10111;50.814;4.572;2023-04-25T07:15:26;10.10;99.90
19898;DHT22;10111;50.814;4.572;2023-04-25T07:17:51;10.20;99.90
19898;DHT22;10111;50.814;4.572;2023-04-25T07:20:17;10.20;99.90
19898;DHT22;10111;50.814;4.572;2023-04-25T07:22:43;10.30;99.90
19898;DHT22;10111;50.814;4.572;2023-04-25T07:25:09;10.30;99.90
19898;DHT22;10111;50.814;4.572;2023-04-25T07:27:35;10.30;99.90
19898;DHT22;10111;50.814;4.572;2023-04-25T07:30:01;10.40;99.90
19898;DHT22;10111;50.814;4.572;2023-04-25T07:32:26;10.50;99.90
19898;DHT22;10111;50.814;4.572;2023-04-25T07:34:52;10.70;99.90
19898;DHT22;10111;50.814;4.572;2023-04-25T07:37:18;10.70;99.90
19898;DHT22;10111;50.814;4.572;2023-04-25T07:39:44;10.70;99.90
19898;DHT22;10111;50.814;4.572;2023-04-25T07:42:11;10.80;99.90
19898;DHT22;10111;50.814;4.572;2023-04-25T07:44:44;10.70;99.90
19898;DHT22;10111;50.814;4.572;2023-04-25T07:47:10;10.80;99.90
19898;DHT22;10111;50.814;4.572;2023-04-25T07:49:36;10.90;99.90
19898;DHT22;10111;50.814;4.572;2023-04-25T07:52:04;11.10;99.90
19898;DHT22;10111;50.814;4.572;2023-04-25T07:54:31;11.10;99.90
19898;DHT22;10111;50.814;4.572;2023-04-25T07:56:58;11.30;99.90
19898;DHT22;10111;50.814;4.572;2023-04-25T07:59:24;11.40;99.90
19898;DHT22;10111;50.814;4.572;2023-04-25T08:01:49;11.60;99.90
19898;DHT22;10111;50.814;4.572;2023-04-25T08:04:15;11.50;99.90
19898;DHT22;10111;50.814;4.572;2023-04-25T08:06:42;11.60;99.90
19898;DHT22;10111;50.814;4.572;2023-04-25T08:09:08;11.80;99.90
19898;DHT22;10111;50.814;4.572;2023-04-25T08:11:35;11.90;99.90
19898;DHT22;10111;50.814;4.572;2023-04-25T08:14:00;11.90;99.90
19898;DHT22;10111;50.814;4.572;2023-04-25T08:16:27;12.20;99.90
19898;DHT22;10111;50.814;4.572;2023-04-25T08:18:52;12.10;99.90
19898;DHT22;10111;50.814;4.572;2023-04-25T08:21:18;11.80;99.90
19898;DHT22;10111;50.814;4.572;2023-04-25T08:23:44;11.90;99.90
19898;DHT22;10111;50.814;4.572;2023-04-25T08:26:09;12.20;99.90
19898;DHT22;10111;50.814;4.572;2023-04-25T08:28:35;12.10;99.90
19898;DHT22;10111;50.814;4.572;2023-04-25T08:31:01;12.00;99.90
19898;DHT22;10111;50.814;4.572;2023-04-25T08:33:26;12.00;99.90
19898;DHT22;10111;50.814;4.572;2023-04-25T08:35:52;12.10;99.90
19898;DHT22;10111;50.814;4.572;2023-04-25T08:38:18;12.30;99.90
19898;DHT22;10111;50.814;4.572;2023-04-25T08:40:44;12.20;99.90
19898;DHT22;10111;50.814;4.572;2023-04-25T08:43:13;12.30;99.90
19898;DHT22;10111;50.814;4.572;2023-04-25T08:45:41;12.20;99.90
19898;DHT22;10111;50.814;4.572;2023-04-25T08:48:12;12.20;99.90
19898;DHT22;10111;50.814;4.572;2023-04-25T08:50:50;12.50;99.90
19898;DHT22;10111;50.814;4.572;2023-04-25T08:53:17;12.30;99.90
19898;DHT22;10111;50.814;4.572;2023-04-25T08:55:46;12.20;99.90
19898;DHT22;10111;50.814;4.572;2023-04-25T08:58:13;12.20;99.90
19898;DHT22;10111;50.814;4.572;2023-04-25T09:00:39;12.30;99.90
19898;DHT22;10111;50.814;4.572;2023-04-25T09:03:05;12.40;99.90
19898;DHT22;10111;50.814;4.572;2023-04-25T09:05:34;12.60;99.90
19898;DHT22;10111;50.814;4.572;2023-04-25T09:08:01;12.50;99.90
19898;DHT22;10111;50.814;4.572;2023-04-25T09:10:27;12.40;99.90
19898;DHT22;10111;50.814;4.572;2023-04-25T09:13:10;12.40;99.90
19898;DHT22;10111;50.814;4.572;2023-04-25T09:15:51;12.20;99.90
19898;DHT22;10111;50.814;4.572;2023-04-25T09:18:31;12.10;99.90
19898;DHT22;10111;50.814;4.572;2023-04-25T09:21:10;12.10;99.90
19898;DHT22;10111;50.814;4.572;2023-04-25T09:23:47;12.10;99.90
19898;DHT22;10111;50.814;4.572;2023-04-25T09:26:18;12.30;99.90
19898;DHT22;10111;50.814;4.572;2023-04-25T09:28:44;12.50;99.90
19898;DHT22;10111;50.814;4.572;2023-04-25T09:31:11;12.90;99.90
19898;DHT22;10111;50.814;4.572;2023-04-25T09:33:37;13.10;99.90
19898;DHT22;10111;50.814;4.572;2023-04-25T09:36:08;13.30;99.90
19898;DHT22;10111;50.814;4.572;2023-04-25T09:38:43;13.50;99.90
19898;DHT22;10111;50.814;4.572;2023-04-25T09:41:10;13.30;99.90
19898;DHT22;10111;50.814;4.572;2023-04-25T09:43:36;13.00;99.90
19898;DHT22;10111;50.814;4.572;2023-04-25T09:46:03;12.70;99.90
19898;DHT22;10111;50.814;4.572;2023-04-25T09:48:33;12.70;99.90
19898;DHT22;10111;50.814;4.572;2023-04-25T09:51:12;12.40;99.90
19898;DHT22;10111;50.814;4.572;2023-04-25T09:53:45;12.30;99.90
19898;DHT22;10111;50.814;4.572;2023-04-25T09:56:16;12.00;99.90
19898;DHT22;10111;50.814;4.572;2023-04-25T09:58:42;11.90;99.90
19898;DHT22;10111;50.814;4.572;2023-04-25T10:01:11;11.90;99.90
19898;DHT22;10111;50.814;4.572;2023-04-25T10:03:38;12.00;99.90
19898;DHT22;10111;50.814;4.572;2023-04-25T10:06:10;12.10;99.90
19898;DHT22;10111;50.814;4.572;2023-04-25T10:08:38;11.80;99.90
19898;DHT22;10111;50.814;4.572;2023-04-25T10:11:05;11.90;99.90
19898;DHT22;10111;50.814;4.572;2023-04-25T10:13:32;11.80;99.90
19898;DHT22;10111;50.814;4.572;2023-04-25T10:16:00;11.50;99.90
19898;DHT22;10111;50.814;4.572;2023-04-25T10:18:27;11.20;99.90
19898;DHT22;10111;50.814;4.572;2023-04-25T10:20:59;11.10;99.90
19898;DHT22;10111;50.814;4.572;2023-04-25T10:23:26;11.40;99.90
19898;DHT22;10111;50.814;4.572;2023-04-25T10:25:52;11.80;99.90
19898;DHT22;10111;50.814;4.572;2023-04-25T10:28:19;12.00;99.90
19898;DHT22;10111;50.814;4.572;2023-04-25T10:33:34;12.10;99.90
19898;DHT22;10111;50.814;4.572;2023-04-25T10:36:13;11.80;99.90
19898;DHT22;10111;50.814;4.572;2023-04-25T10:38:39;11.70;99.90
19898;DHT22;10111;50.814;4.572;2023-04-25T10:41:07;11.90;99.90
19898;DHT22;10111;50.814;4.572;2023-04-25T10:43:37;12.00;99.90
19898;DHT22;10111;50.814;4.572;2023-04-25T10:48:55;12.90;99.90
19898;DHT22;10111;50.814;4.572;2023-04-25T10:51:22;12.90;99.90
19898;DHT22;10111;50.814;4.572;2023-04-25T10:56:35;12.70;99.90
19898;DHT22;10111;50.814;4.572;2023-04-25T11:04:03;12.70;99.90
19898;DHT22;10111;50.814;4.572;2023-04-25T11:09:01;12.60;99.90
19898;DHT22;10111;50.814;4.572;2023-04-25T11:11:28;12.60;99.90
19898;DHT22;10111;50.814;4.572;2023-04-25T11:13:54;12.70;99.90
19898;DHT22;10111;50.814;4.572;2023-04-25T11:16:24;13.00;99.90
19898;DHT22;10111;50.814;4.572;2023-04-25T11:18:49;13.00;99.90
19898;DHT22;10111;50.814;4.572;2023-04-25T11:21:15;12.70;99.90
19898;DHT22;10111;50.814;4.572;2023-04-25T11:23:45;12.50;99.90
19898;DHT22;10111;50.814;4.572;2023-04-25T11:26:13;12.60;99.90
19898;DHT22;10111;50.814;4.572;2023-04-25T11:28:38;12.70;99.90
19898;DHT22;10111;50.814;4.572;2023-04-25T11:31:04;12.70;99.90
19898;DHT22;10111;50.814;4.572;2023-04-25T11:33:30;12.80;99.90
19898;DHT22;10111;50.814;4.572;2023-04-25T11:35:56;12.60;99.90
19898;DHT22;10111;50.814;4.572;2023-04-25T11:38:22;12.50;99.90
19898;DHT22;10111;50.814;4.572;2023-04-25T11:40:53;12.40;99.90
19898;DHT22;10111;50.814;4.572;2023-04-25T11:43:22;12.40;99.90
19898;DHT22;10111;50.814;4.572;2023-04-25T11:45:49;12.60;99.90
19898;DHT22;10111;50.814;4.572;2023-04-25T11:48:16;12.60;99.90
19898;DHT22;10111;50.814;4.572;2023-04-25T11:50:41;12.50;99.90
19898;DHT22;10111;50.814;4.572;2023-04-25T11:53:07;12.80;99.90
19898;DHT22;10111;50.814;4.572;2023-04-25T11:55:34;12.80;99.90
19898;DHT22;10111;50.814;4.572;2023-04-25T11:58:00;12.80;99.90
19898;DHT22;10111;50.814;4.572;2023-04-25T12:00:27;12.80;99.90
19898;DHT22;10111;50.814;4.572;2023-04-25T12:02:54;13.00;99.90
19898;DHT22;10111;50.814;4.572;2023-04-25T12:05:23;13.20;99.90
19898;DHT22;10111;50.814;4.572;2023-04-25T12:07:49;13.40;99.90
19898;DHT22;10111;50.814;4.572;2023-04-25T12:10:16;13.60;99.90
19898;DHT22;10111;50.814;4.572;2023-04-25T12:12:44;13.70;99.90
19898;DHT22;10111;50.814;4.572;2023-04-25T12:15:18;13.40;99.90
19898;DHT22;10111;50.814;4.572;2023-04-25T12:17:51;13.00;99.90
19898;DHT22;10111;50.814;4.572;2023-04-25T12:20:19;12.60;99.90
19898;DHT22;10111;50.814;4.572;2023-04-25T12:22:47;12.60;99.90
19898;DHT22;10111;50.814;4.572;2023-04-25T12:28:31;12.60;99.90
19898;DHT22;10111;50.814;4.572;2023-04-25T12:31:01;12.80;99.90
19898;DHT22;10111;50.814;4.572;2023-04-25T12:33:33;12.80;99.90
19898;DHT22;10111;50.814;4.572;2023-04-25T12:36:00;13.20;99.90
19898;DHT22;10111;50.814;4.572;2023-04-25T12:38:30;13.50;99.90
19898;DHT22;10111;50.814;4.572;2023-04-25T12:40:57;13.70;99.90
19898;DHT22;10111;50.814;4.572;2023-04-25T12:43:23;13.80;99.90
19898;DHT22;10111;50.814;4.572;2023-04-25T12:45:50;13.80;99.90
19898;DHT22;10111;50.814;4.572;2023-04-25T12:48:19;13.80;99.90
19898;DHT22;10111;50.814;4.572;2023-04-25T12:50:46;13.70;99.90
19898;DHT22;10111;50.814;4.572;2023-04-25T12:53:16;13.80;99.90
19898;DHT22;10111;50.814;4.572;2023-04-25T12:55:42;13.70;99.90
19898;DHT22;10111;50.814;4.572;2023-04-25T12:58:08;13.80;99.90
19898;DHT22;10111;50.814;4.572;2023-04-25T13:00:34;13.90;99.90
19898;DHT22;10111;50.814;4.572;2023-04-25T13:02:59;13.80;99.90
19898;DHT22;10111;50.814;4.572;2023-04-25T13:05:26;13.60;99.90
19898;DHT22;10111;50.814;4.572;2023-04-25T13:07:51;13.30;99.90
19898;DHT22;10111;50.814;4.572;2023-04-25T13:10:17;13.40;99.90
19898;DHT22;10111;50.814;4.572;2023-04-25T13:12:43;13.60;99.90
19898;DHT22;10111;50.814;4.572;2023-04-25T13:15:09;13.70;99.90
19898;DHT22;10111;50.814;4.572;2023-04-25T13:17:37;13.50;99.90
19898;DHT22;10111;50.814;4.572;2023-04-25T13:20:05;13.50;99.90
19898;DHT22;10111;50.814;4.572;2023-04-25T13:22:34;13.30;99.90
19898;DHT22;10111;50.814;4.572;2023-04-25T13:25:02;13.40;99.90
19898;DHT22;10111;50.814;4.572;2023-04-25T13:27:28;13.40;99.90
19898;DHT22;10111;50.814;4.572;2023-04-25T13:29:54;13.50;99.90
19898;DHT22;10111;50.814;4.572;2023-04-25T13:32:20;13.60;99.90
19898;DHT22;10111;50.814;4.572;2023-04-25T13:34:45;13.60;99.90
19898;DHT22;10111;50.814;4.572;2023-04-25T13:37:11;13.60;99.90
19898;DHT22;10111;50.814;4.572;2023-04-25T13:39:37;13.60;99.90
19898;DHT22;10111;50.814;4.572;2023-04-25T13:42:02;13.40;99.90
19898;DHT22;10111;50.814;4.572;2023-04-25T13:44:28;13.40;99.90
19898;DHT22;10111;50.814;4.572;2023-04-25T13:46:54;13.00;99.90
19898;DHT22;10111;50.814;4.572;2023-04-25T13:49:20;13.00;99.90
19898;DHT22;10111;50.814;4.572;2023-04-25T13:51:45;13.00;99.90
19898;DHT22;10111;50.814;4.572;2023-04-25T13:54:11;12.90;99.90
19898;DHT22;10111;50.814;4.572;2023-04-25T13:56:37;12.80;99.90
19898;DHT22;10111;50.814;4.572;2023-04-25T13:59:02;13.00;99.90
19898;DHT22;10111;50.814;4.572;2023-04-25T14:01:28;12.70;99.90
19898;DHT22;10111;50.814;4.572;2023-04-25T14:03:57;12.80;99.90
19898;DHT22;10111;50.814;4.572;2023-04-25T14:06:22;13.00;99.90
19898;DHT22;10111;50.814;4.572;2023-04-25T14:08:52;13.00;99.90
19898;DHT22;10111;50.814;4.572;2023-04-25T14:11:17;12.90;99.90
19898;DHT22;10111;50.814;4.572;2023-04-25T14:13:44;13.10;99.90
19898;DHT22;10111;50.814;4.572;2023-04-25T14:16:10;13.00;99.90
19898;DHT22;10111;50.814;4.572;2023-04-25T14:18:36;13.10;99.90
19898;DHT22;10111;50.814;4.572;2023-04-25T14:21:01;12.90;99.90
19898;DHT22;10111;50.814;4.572;2023-04-25T14:23:27;13.00;99.90
19898;DHT22;10111;50.814;4.572;2023-04-25T14:25:52;13.10;99.90
19898;DHT22;10111;50.814;4.572;2023-04-25T14:28:19;13.30;99.90
19898;DHT22;10111;50.814;4.572;2023-04-25T14:30:45;13.60;99.90
19898;DHT22;10111;50.814;4.572;2023-04-25T14:33:11;13.80;99.90
19898;DHT22;10111;50.814;4.572;2023-04-25T14:35:37;13.80;99.90
19898;DHT22;10111;50.814;4.572;2023-04-25T14:38:02;13.70;99.90
19898;DHT22;10111;50.814;4.572;2023-04-25T14:40:28;13.80;99.90
19898;DHT22;10111;50.814;4.572;2023-04-25T14:42:54;13.70;99.90
19898;DHT22;10111;50.814;4.572;2023-04-25T14:45:20;13.60;99.90
19898;DHT22;10111;50.814;4.572;2023-04-25T14:47:45;13.70;99.90
19898;DHT22;10111;50.814;4.572;2023-04-25T14:50:11;13.60;99.90
19898;DHT22;10111;50.814;4.572;2023-04-25T14:52:36;13.50;99.90
19898;DHT22;10111;50.814;4.572;2023-04-25T14:55:03;13.50;99.90
19898;DHT22;10111;50.814;4.572;2023-04-25T14:57:32;13.60;99.90
19898;DHT22;10111;50.814;4.572;2023-04-25T14:59:58;13.60;99.90
19898;DHT22;10111;50.814;4.572;2023-04-25T15:02:24;13.60;99.90
19898;DHT22;10111;50.814;4.572;2023-04-25T15:04:50;13.60;99.90
19898;DHT22;10111;50.814;4.572;2023-04-25T15:07:15;13.60;99.90
19898;DHT22;10111;50.814;4.572;2023-04-25T15:09:41;13.60;99.90
19898;DHT22;10111;50.814;4.572;2023-04-25T15:12:07;13.60;99.90
19898;DHT22;10111;50.814;4.572;2023-04-25T15:14:33;13.70;99.90
19898;DHT22;10111;50.814;4.572;2023-04-25T15:16:59;13.80;99.90
19898;DHT22;10111;50.814;4.572;2023-04-25T15:19:25;13.70;99.90
19898;DHT22;10111;50.814;4.572;2023-04-25T15:21:51;13.60;99.90
19898;DHT22;10111;50.814;4.572;2023-04-25T15:24:17;13.70;99.90
19898;DHT22;10111;50.814;4.572;2023-04-25T15:26:43;13.90;99.90
19898;DHT22;10111;50.814;4.572;2023-04-25T15:29:11;13.90;99.90
19898;DHT22;10111;50.814;4.572;2023-04-25T15:31:37;14.00;99.90
19898;DHT22;10111;50.814;4.572;2023-04-25T15:34:03;14.00;99.90
19898;DHT22;10111;50.814;4.572;2023-04-25T15:36:29;14.00;99.90
19898;DHT22;10111;50.814;4.572;2023-04-25T15:38:55;14.10;99.90
19898;DHT22;10111;50.814;4.572;2023-04-25T15:41:21;14.00;99.90
19898;DHT22;10111;50.814;4.572;2023-04-25T15:43:47;14.10;99.90
19898;DHT22;10111;50.814;4.572;2023-04-25T15:46:13;14.30;99.90
19898;DHT22;10111;50.814;4.572;2023-04-25T15:48:39;14.20;99.90
19898;DHT22;10111;50.814;4.572;2023-04-25T15:51:05;14.10;99.90
19898;DHT22;10111;50.814;4.572;2023-04-25T15:53:31;14.10;99.90